sensor_id;sensor_type;location;lat;lon;timestamp;temperature;humidity
57843;DHT22;43673;51.058;3.734;2022-11-18T01:45:51;9.60;99.90
57843;DHT22;43673;51.058;3.734;2022-11-18T03:09:58;9.10;99.90
57843;DHT22;43673;51.058;3.734;2022-11-18T06:30:48;9.80;99.90
57843;DHT22;43673;51.058;3.734;2022-11-18T09:34:36;11.30;99.90
57843;DHT22;43673;51.058;3.734;2022-11-18T10:11:17;11.50;99.90
57843;DHT22;43673;51.058;3.734;2022-11-18T12:26:37;13.00;99.90
57843;DHT22;43673;51.058;3.734;2022-11-18T12:39:59;13.30;99.90
57843;DHT22;43673;51.058;3.734;2022-11-18T13:00:40;13.30;99.90
57843;DHT22;43673;51.058;3.734;2022-11-18T13:15:17;13.50;99.90
57843;DHT22;43673;51.058;3.734;2022-11-18T13:20:54;13.50;99.90
57843;DHT22;43673;51.058;3.734;2022-11-18T13:40:25;13.50;99.90
57843;DHT22;43673;51.058;3.734;2022-11-18T13:42:51;13.60;99.90
57843;DHT22;43673;51.058;3.734;2022-11-18T13:45:18;13.50;99.90
57843;DHT22;43673;51.058;3.734;2022-11-18T13:50:39;13.70;99.90
57843;DHT22;43673;51.058;3.734;2022-11-18T13:53:07;13.70;99.90
57843;DHT22;43673;51.058;3.734;2022-11-18T14:01:23;13.70;99.90
57843;DHT22;43673;51.058;3.734;2022-11-18T14:04:03;13.80;99.90
57843;DHT22;43673;51.058;3.734;2022-11-18T14:06:35;13.90;99.90
57843;DHT22;43673;51.058;3.734;2022-11-18T14:09:25;13.90;99.90
57843;DHT22;43673;51.058;3.734;2022-11-18T14:14:34;14.00;99.90
57843;DHT22;43673;51.058;3.734;2022-11-18T14:17:26;14.00;99.90
57843;DHT22;43673;51.058;3.734;2022-11-18T14:19:58;14.10;99.90
57843;DHT22;43673;51.058;3.734;2022-11-18T14:22:28;14.10;99.90
57843;DHT22;43673;51.058;3.734;2022-11-18T14:25:00;14.10;99.90
57843;DHT22;43673;51.058;3.734;2022-11-18T14:27:43;14.10;99.90
57843;DHT22;43673;51.058;3.734;2022-11-18T14:30:32;14.10;99.90
57843;DHT22;43673;51.058;3.734;2022-11-18T14:33:34;14.20;99.90
57843;DHT22;43673;51.058;3.734;2022-11-18T14:36:15;14.10;99.90
57843;DHT22;43673;51.058;3.734;2022-11-18T14:38:49;14.10;99.90
57843;DHT22;43673;51.058;3.734;2022-11-18T14:41:18;14.10;99.90
57843;DHT22;43673;51.058;3.734;2022-11-18T14:44:04;14.10;99.90
57843;DHT22;43673;51.058;3.734;2022-11-18T14:46:30;14.20;99.90
57843;DHT22;43673;51.058;3.734;2022-11-18T14:48:57;14.20;99.90
57843;DHT22;43673;51.058;3.734;2022-11-18T14:51:23;14.20;99.90
57843;DHT22;43673;51.058;3.734;2022-11-18T14:53:48;14.20;99.90
57843;DHT22;43673;51.058;3.734;2022-11-18T14:56:29;14.20;99.90
57843;DHT22;43673;51.058;3.734;2022-11-18T14:58:55;14.20;99.90
57843;DHT22;43673;51.058;3.734;2022-11-18T15:01:22;14.10;99.90
57843;DHT22;43673;51.058;3.734;2022-11-18T15:03:50;14.00;99.90
57843;DHT22;43673;51.058;3.734;2022-11-18T15:06:17;14.00;99.90
57843;DHT22;43673;51.058;3.734;2022-11-18T15:08:44;14.00;99.90
57843;DHT22;43673;51.058;3.734;2022-11-18T15:11:10;14.00;99.90
57843;DHT22;43673;51.058;3.734;2022-11-18T15:13:37;14.00;99.90
57843;DHT22;43673;51.058;3.734;2022-11-18T15:16:19;13.80;99.90
57843;DHT22;43673;51.058;3.734;2022-11-18T15:18:48;13.90;99.90
57843;DHT22;43673;51.058;3.734;2022-11-18T15:21:15;13.90;99.90
57843;DHT22;43673;51.058;3.734;2022-11-18T15:23:41;13.90;99.90
57843;DHT22;43673;51.058;3.734;2022-11-18T15:33:02;13.90;99.90
57843;DHT22;43673;51.058;3.734;2022-11-18T15:51:45;13.60;99.90
57843;DHT22;43673;51.058;3.734;2022-11-18T16:25:48;13.00;99.90
57843;DHT22;43673;51.058;3.734;2022-11-18T16:28:14;13.00;99.90
57843;DHT22;43673;51.058;3.734;2022-11-18T16:30:40;13.00;99.90
57843;DHT22;43673;51.058;3.734;2022-11-18T16:33:24;12.90;99.90
57843;DHT22;43673;51.058;3.734;2022-11-18T16:35:50;12.90;99.90
57843;DHT22;43673;51.058;3.734;2022-11-18T16:38:16;13.00;99.90
57843;DHT22;43673;51.058;3.734;2022-11-18T16:40:41;13.00;99.90
57843;DHT22;43673;51.058;3.734;2022-11-18T16:45:58;13.00;99.90
57843;DHT22;43673;51.058;3.734;2022-11-18T16:48:24;13.00;99.90
57843;DHT22;43673;51.058;3.734;2022-11-18T16:51:19;12.70;99.90
57843;DHT22;43673;51.058;3.734;2022-11-18T16:53:52;12.90;99.90
57843;DHT22;43673;51.058;3.734;2022-11-18T16:56:21;12.80;99.90
57843;DHT22;43673;51.058;3.734;2022-11-18T16:58:47;12.80;99.90
57843;DHT22;43673;51.058;3.734;2022-11-18T17:01:13;12.90;99.90
57843;DHT22;43673;51.058;3.734;2022-11-18T17:06:33;12.80;99.90
57843;DHT22;43673;51.058;3.734;2022-11-18T17:09:00;12.70;99.90
57843;DHT22;43673;51.058;3.734;2022-11-18T17:11:26;12.80;99.90
57843;DHT22;43673;51.058;3.734;2022-11-18T17:16:48;12.80;99.90
57843;DHT22;43673;51.058;3.734;2022-11-18T17:19:16;12.70;99.90
57843;DHT22;43673;51.058;3.734;2022-11-18T17:21:47;12.70;99.90
57843;DHT22;43673;51.058;3.734;2022-11-18T17:24:15;12.70;99.90
57843;DHT22;43673;51.058;3.734;2022-11-18T17:26:42;12.70;99.90
57843;DHT22;43673;51.058;3.734;2022-11-18T17:34:21;12.70;99.90
57843;DHT22;43673;51.058;3.734;2022-11-18T17:36:48;12.60;99.90
57843;DHT22;43673;51.058;3.734;2022-11-18T17:39:40;12.70;99.90
57843;DHT22;43673;51.058;3.734;2022-11-18T17:42:06;12.70;99.90
57843;DHT22;43673;51.058;3.734;2022-11-18T17:44:50;12.70;99.90
57843;DHT22;43673;51.058;3.734;2022-11-18T17:47:20;12.70;99.90
57843;DHT22;43673;51.058;3.734;2022-11-18T18:00:13;12.60;99.90
57843;DHT22;43673;51.058;3.734;2022-11-18T18:29:37;12.50;99.90
